Time;durP1;ratioP1;P1;durP2;ratioP2;P2;SDS_P1;SDS_P2;PMS_P1;PMS_P2;Temp;Humidity;BMP_temperature;BMP_pressure;BME280_temperature;BME280_humidity;BME280_pressure;Samples;Min_cycle;Max_cycle;Signal;HPM_P1;HPM_P2
2023/04/18 00:02:15;;;;;;;1.65;0.93;;;;;;;14.59;47.58;100409.28;5015100;28;20498;-87
2023/04/18 00:04:45;;;;;;;1.00;0.80;;;;;;;14.52;48.57;100410.97;5005818;28;20025;-87
2023/04/18 00:07:14;;;;;;;1.25;0.80;;;;;;;14.15;49.59;100414.19;5009301;28;20084;-88
2023/04/18 00:09:40;;;;;;;1.85;1.10;;;;;;;13.82;51.25;100413.44;4997515;28;20109;-87
2023/04/18 00:12:05;;;;;;;1.70;1.10;;;;;;;13.61;51.86;100411.38;5000756;28;20068;-87
2023/04/18 00:14:33;;;;;;;3.80;1.08;;;;;;;13.46;52.44;100419.06;5010211;28;20084;-87
2023/04/18 00:16:58;;;;;;;1.85;1.17;;;;;;;13.37;53.40;100414.00;5002310;28;20476;-88
2023/04/18 00:19:23;;;;;;;1.38;1.20;;;;;;;13.34;52.53;100412.50;5025233;28;20031;-88
2023/04/18 00:21:51;;;;;;;1.20;0.80;;;;;;;13.84;50.97;100401.81;5013106;28;20111;-88
2023/04/18 00:24:17;;;;;;;2.83;0.80;;;;;;;13.94;50.80;100406.88;5002175;28;20125;-88
2023/04/18 00:26:42;;;;;;;1.38;0.90;;;;;;;13.70;52.17;100409.56;5002109;28;20107;-87
2023/04/18 00:29:08;;;;;;;2.58;0.90;;;;;;;13.69;51.52;100403.50;5011274;28;20033;-87
2023/04/18 00:31:33;;;;;;;1.45;1.20;;;;;;;13.53;53.31;100400.91;5002582;28;20030;-88
2023/04/18 00:33:59;;;;;;;3.50;0.73;;;;;;;13.37;52.99;100404.34;5001286;28;20109;-87
2023/04/18 00:36:24;;;;;;;2.75;0.60;;;;;;;13.77;51.63;100397.41;5002854;28;20443;-88
2023/04/18 00:38:50;;;;;;;0.90;0.70;;;;;;;13.93;50.73;100394.78;4999316;28;20633;-87
2023/04/18 00:41:15;;;;;;;1.08;0.70;;;;;;;14.16;49.56;100395.69;5015129;28;20029;-87
2023/04/18 00:43:41;;;;;;;1.50;0.70;;;;;;;14.35;49.04;100388.41;5004730;28;20033;-87
2023/04/18 00:46:06;;;;;;;1.83;0.60;;;;;;;14.23;49.50;100395.81;5010418;28;20036;-87
2023/04/18 00:48:32;;;;;;;1.73;0.98;;;;;;;14.20;49.80;100394.34;5016242;28;20030;-87
2023/04/18 00:50:59;;;;;;;1.85;0.90;;;;;;;14.06;50.51;100402.94;5018678;28;20057;-88
2023/04/18 00:53:24;;;;;;;1.45;0.80;;;;;;;13.78;52.15;100396.44;5008424;28;20030;-87
2023/04/18 00:55:50;;;;;;;5.50;1.10;;;;;;;13.51;52.97;100403.69;5005716;28;20041;-87
2023/04/18 00:58:15;;;;;;;1.40;0.60;;;;;;;13.95;51.55;100387.56;5004969;28;20030;-87
2023/04/18 01:00:41;;;;;;;1.30;0.80;;;;;;;13.89;52.29;100394.28;5017987;28;20026;-87
2023/04/18 01:03:07;;;;;;;1.20;0.60;;;;;;;13.63;52.89;100404.19;4998239;28;20057;-88
2023/04/18 01:05:33;;;;;;;3.83;1.02;;;;;;;13.53;52.77;100396.50;5004110;28;20152;-88
2023/04/18 01:08:00;;;;;;;1.30;0.85;;;;;;;13.29;54.10;100405.16;5005929;28;20104;-87
2023/04/18 01:10:26;;;;;;;2.88;1.20;;;;;;;13.02;55.72;100407.25;4998722;28;20149;-87
2023/04/18 01:13:12;;;;;;;1.83;1.35;;;;;;;12.84;54.72;100400.34;4997391;28;20029;-87
2023/04/18 01:15:39;;;;;;;2.03;0.80;;;;;;;12.98;54.66;100408.53;5005005;28;20041;-88
2023/04/18 01:18:06;;;;;;;1.38;0.77;;;;;;;13.53;52.71;100401.72;5006002;28;20038;-88
2023/04/18 01:20:34;;;;;;;1.38;0.90;;;;;;;13.32;54.27;100396.16;5002875;28;20469;-87
2023/04/18 01:22:59;;;;;;;1.98;1.15;;;;;;;13.06;56.29;100395.47;5000497;28;20153;-87
2023/04/18 01:25:25;;;;;;;1.73;0.85;;;;;;;13.02;56.54;100402.00;4998456;28;20046;-87
2023/04/18 01:27:50;;;;;;;1.88;1.05;;;;;;;12.82;57.11;100404.09;5002451;28;20030;-87
2023/04/18 01:30:15;;;;;;;3.72;1.65;;;;;;;12.54;57.91;100398.31;5004900;28;20030;-88
2023/04/18 01:32:43;;;;;;;2.10;1.27;;;;;;;12.25;58.96;100396.91;5006831;28;20502;-87
2023/04/18 01:35:08;;;;;;;1.98;1.42;;;;;;;12.12;60.14;100396.53;5001272;28;20052;-88
2023/04/18 01:37:33;;;;;;;2.05;1.52;;;;;;;12.35;58.97;100396.78;4998306;28;20026;-87
2023/04/18 01:39:59;;;;;;;1.90;1.42;;;;;;;12.16;60.71;100390.03;5005772;28;20104;-88
2023/04/18 01:42:24;;;;;;;1.90;1.40;;;;;;;11.85;62.88;100389.69;5002656;28;20148;-88
2023/04/18 01:44:50;;;;;;;4.18;1.40;;;;;;;11.57;64.83;100390.78;5007736;28;20048;-87
2023/04/18 01:47:15;;;;;;;2.85;1.40;;;;;;;11.33;66.26;100388.84;4999214;28;20076;-88
2023/04/18 01:49:45;;;;;;;2.88;1.70;;;;;;;11.11;67.87;100386.69;5003799;28;20042;-88
2023/04/18 01:52:13;;;;;;;2.90;1.60;;;;;;;10.92;69.29;100395.47;5008006;28;20485;-87
2023/04/18 01:54:38;;;;;;;1.80;1.48;;;;;;;10.75;70.40;100396.28;4997156;28;20038;-87
2023/04/18 01:57:03;;;;;;;2.20;1.25;;;;;;;10.59;71.39;100394.31;5014583;28;20132;-87
2023/04/18 01:59:29;;;;;;;2.85;1.63;;;;;;;10.52;71.24;100394.06;5000391;28;20018;-87
2023/04/18 02:01:54;;;;;;;3.10;1.85;;;;;;;10.51;70.50;100399.44;4996500;28;20361;-87
2023/04/18 02:04:20;;;;;;;3.22;2.75;;;;;;;10.57;69.71;100397.06;5004014;28;20163;-87
2023/04/18 02:06:45;;;;;;;3.05;2.10;;;;;;;10.56;69.74;100394.59;4996261;28;20395;-87
2023/04/18 02:09:10;;;;;;;5.22;2.05;;;;;;;10.58;70.06;100392.69;4994210;28;20413;-87
2023/04/18 02:11:36;;;;;;;4.35;2.15;;;;;;;10.50;71.19;100385.59;4994705;28;20033;-88
2023/04/18 02:14:01;;;;;;;4.18;1.92;;;;;;;10.42;72.01;100390.69;5001990;28;20026;-88
2023/04/18 02:16:27;;;;;;;2.90;1.92;;;;;;;10.32;73.15;100387.34;5023113;28;20471;-87
2023/04/18 02:18:52;;;;;;;6.45;2.95;;;;;;;10.21;73.48;100388.34;4999227;28;20030;-87
2023/04/18 02:21:17;;;;;;;6.03;2.88;;;;;;;10.41;72.30;100390.84;4998883;28;20160;-88
2023/04/18 02:23:43;;;;;;;6.15;2.75;;;;;;;10.39;73.30;100388.41;5006440;28;20030;-88
2023/04/18 02:26:08;;;;;;;5.40;2.40;;;;;;;10.28;74.14;100392.03;4996423;28;20091;-87
2023/04/18 02:28:37;;;;;;;4.35;2.88;;;;;;;10.22;74.06;100387.38;5001939;28;20494;-87
2023/04/18 02:31:03;;;;;;;2.80;2.33;;;;;;;10.19;74.43;100387.69;5007854;28;20033;-87
2023/04/18 02:33:28;;;;;;;4.68;2.85;;;;;;;10.16;75.46;100390.53;4998853;28;20510;-87
2023/04/18 02:35:54;;;;;;;4.47;2.33;;;;;;;10.05;76.43;100392.50;5003645;28;20040;-87
2023/04/18 02:38:19;;;;;;;4.60;2.25;;;;;;;9.98;76.30;100395.66;4995561;28;20029;-87
2023/04/18 02:40:44;;;;;;;2.97;2.22;;;;;;;9.99;76.36;100392.09;4995196;28;20046;-87
2023/04/18 02:43:10;;;;;;;3.05;2.00;;;;;;;9.95;75.83;100393.34;5003833;28;20025;-87
2023/04/18 02:45:35;;;;;;;3.05;1.88;;;;;;;10.14;74.60;100394.25;5006145;28;20088;-87
2023/04/18 02:48:01;;;;;;;2.47;1.65;;;;;;;10.17;75.15;100394.78;5008516;28;20060;-87
2023/04/18 02:50:27;;;;;;;2.95;1.83;;;;;;;10.07;76.22;100388.78;5004483;28;20129;-87
2023/04/18 02:52:53;;;;;;;6.63;2.40;;;;;;;9.99;76.23;100386.88;5011190;28;20478;-87
2023/04/18 02:55:18;;;;;;;3.30;2.13;;;;;;;9.94;77.63;100388.28;5000259;28;20041;-87
2023/04/18 02:57:44;;;;;;;4.18;1.67;;;;;;;9.83;77.60;100386.69;5006998;28;20049;-87
2023/04/18 03:00:10;;;;;;;3.00;1.95;;;;;;;9.87;78.04;100389.84;4999877;28;20041;-88
2023/04/18 03:02:35;;;;;;;3.50;1.88;;;;;;;9.77;79.05;100387.25;5007716;28;20081;-88
2023/04/18 03:05:01;;;;;;;3.53;2.40;;;;;;;9.72;79.68;100393.84;5004217;28;20439;-87
2023/04/18 03:07:26;;;;;;;2.65;2.25;;;;;;;9.72;79.09;100394.66;5009164;28;20426;-87
2023/04/18 03:09:52;;;;;;;4.43;1.88;;;;;;;9.77;79.05;100383.84;5001431;28;20219;-88
2023/04/18 03:12:18;;;;;;;6.72;2.63;;;;;;;9.74;79.84;100381.50;5012962;28;20033;-87
2023/04/18 03:14:43;;;;;;;5.25;2.42;;;;;;;9.67;80.38;100377.81;5007303;28;20034;-87
2023/04/18 03:17:09;;;;;;;6.15;2.50;;;;;;;9.60;81.03;100377.56;5012154;28;20033;-87
2023/04/18 03:19:34;;;;;;;5.25;2.35;;;;;;;9.51;82.08;100370.59;5005492;28;20053;-87
2023/04/18 03:21:59;;;;;;;3.15;2.17;;;;;;;9.44;82.75;100385.97;5006268;28;20034;-87
2023/04/18 03:24:25;;;;;;;3.55;1.98;;;;;;;9.39;83.47;100382.97;5014666;28;20076;-87
2023/04/18 03:26:50;;;;;;;2.08;1.75;;;;;;;9.35;84.12;100384.19;5004504;28;20711;-87
2023/04/18 03:29:16;;;;;;;4.95;2.25;;;;;;;9.32;84.52;100376.66;5005819;28;20415;-87
2023/04/18 03:31:41;;;;;;;6.60;2.65;;;;;;;9.27;85.23;100378.84;5007260;28;20034;-87
2023/04/18 03:34:07;;;;;;;3.22;1.65;;;;;;;9.23;85.52;100385.28;5011237;28;20403;-87
2023/04/18 03:36:32;;;;;;;3.63;2.25;;;;;;;9.18;85.35;100383.09;5005043;28;20026;-87
2023/04/18 03:38:57;;;;;;;4.63;1.77;;;;;;;9.11;85.98;100384.59;5005855;28;20551;-87
2023/04/18 03:41:23;;;;;;;1.98;1.70;;;;;;;9.06;86.55;100381.59;5007410;28;20026;-88
2023/04/18 03:43:48;;;;;;;2.63;1.95;;;;;;;9.02;86.96;100382.00;5046595;28;20006;-87
2023/04/18 03:46:14;;;;;;;5.10;1.58;;;;;;;9.09;86.19;100367.50;5022637;28;20037;-87
2023/04/18 03:48:39;;;;;;;2.58;1.52;;;;;;;9.09;85.79;100377.91;5022688;28;20009;-87
2023/04/18 03:51:05;;;;;;;3.50;1.88;;;;;;;9.21;84.65;100384.59;5022028;28;20038;-87
2023/04/18 03:53:31;;;;;;;4.60;2.08;;;;;;;9.19;84.59;100389.13;5007069;28;20034;-88
2023/04/18 03:55:58;;;;;;;3.60;2.13;;;;;;;9.30;83.10;100382.00;5004579;28;20033;-87
2023/04/18 03:58:23;;;;;;;2.67;1.95;;;;;;;9.35;83.65;100399.78;5007470;28;20492;-87
2023/04/18 04:00:50;;;;;;;2.35;1.58;;;;;;;9.29;84.27;100392.53;5002597;28;20109;-86
2023/04/18 04:03:16;;;;;;;2.70;2.00;;;;;;;9.17;85.94;100394.44;4998334;28;20484;-87
2023/04/18 04:05:42;;;;;;;5.95;2.28;;;;;;;9.07;86.79;100392.81;5002970;28;20117;-87
2023/04/18 04:08:08;;;;;;;10.85;2.58;;;;;;;8.99;87.42;100385.69;5000603;28;20034;-87
2023/04/18 04:10:34;;;;;;;5.55;2.80;;;;;;;8.94;88.53;100388.72;4983334;28;20042;-87
2023/04/18 04:13:00;;;;;;;3.55;1.80;;;;;;;8.90;89.00;100395.13;5005973;28;20549;-87
2023/04/18 04:15:26;;;;;;;2.08;1.80;;;;;;;9.02;87.74;100379.41;4993705;28;20038;-87
2023/04/18 04:17:52;;;;;;;3.70;1.92;;;;;;;9.08;88.10;100389.25;4998153;28;20091;-86
2023/04/18 04:20:22;;;;;;;2.63;1.80;;;;;;;9.08;88.15;100391.84;5001558;28;20436;-87
2023/04/18 04:22:55;;;;;;;4.93;1.80;;;;;;;9.05;88.52;100390.34;4999245;28;20380;-87
2023/04/18 04:25:23;;;;;;;3.88;1.80;;;;;;;9.07;88.95;100398.00;5002770;28;20030;-87
2023/04/18 04:27:52;;;;;;;3.08;2.08;;;;;;;9.10;88.64;100392.53;4994838;28;20124;-87
2023/04/18 04:30:20;;;;;;;2.47;2.05;;;;;;;9.18;89.65;100390.91;4993740;28;20492;-87
2023/04/18 04:32:46;;;;;;;3.42;2.40;;;;;;;9.24;89.71;100395.56;5015032;28;20069;-87
2023/04/18 04:35:12;;;;;;;4.93;2.00;;;;;;;9.28;88.92;100390.91;5004665;28;20125;-87
2023/04/18 04:37:40;;;;;;;4.85;1.80;;;;;;;9.40;89.10;100400.19;5003952;28;20042;-87
2023/04/18 04:40:08;;;;;;;3.80;2.00;;;;;;;9.47;89.56;100397.84;4995337;28;20077;-87
2023/04/18 04:42:34;;;;;;;6.97;2.60;;;;;;;9.54;89.30;100397.16;5000113;28;20416;-87
2023/04/18 04:45:01;;;;;;;4.18;2.40;;;;;;;9.61;88.32;100398.22;4991846;28;20109;-87
2023/04/18 04:47:26;;;;;;;4.97;2.20;;;;;;;9.69;87.33;100399.31;4997938;28;20068;-87
2023/04/18 04:49:52;;;;;;;2.72;1.90;;;;;;;9.77;87.16;100402.03;5011969;28;20487;-87
2023/04/18 04:52:17;;;;;;;4.45;2.20;;;;;;;9.82;86.84;100398.06;5020426;28;20097;-87
2023/04/18 04:54:44;;;;;;;4.65;2.28;;;;;;;9.93;87.84;100397.88;5013701;28;20180;-87
2023/04/18 04:57:10;;;;;;;5.13;3.20;;;;;;;9.99;86.39;100405.09;5015995;28;20041;-86
2023/04/18 04:59:35;;;;;;;4.03;3.35;;;;;;;10.12;87.05;100396.16;5021778;28;20054;-87
2023/04/18 05:02:01;;;;;;;5.35;2.22;;;;;;;10.20;87.56;100404.13;5033065;28;20053;-87
2023/04/18 05:04:26;;;;;;;3.92;2.58;;;;;;;10.18;86.47;100412.03;5030792;28;20046;-87
2023/04/18 05:06:52;;;;;;;3.40;1.83;;;;;;;10.24;84.92;100413.28;5038557;28;20030;-87
2023/04/18 05:09:17;;;;;;;3.67;1.42;;;;;;;10.40;82.39;100405.66;5006568;28;20093;-87
2023/04/18 05:11:43;;;;;;;5.95;2.03;;;;;;;10.69;81.32;100409.91;5002198;28;20445;-87
2023/04/18 05:14:08;;;;;;;4.43;1.95;;;;;;;10.80;79.72;100407.91;5010190;28;20037;-87
2023/04/18 05:16:34;;;;;;;4.30;2.33;;;;;;;10.93;79.58;100413.56;5012222;28;20033;-87
2023/04/18 05:19:00;;;;;;;5.18;2.15;;;;;;;11.17;76.16;100412.16;4995817;28;20800;-87
2023/04/18 05:21:27;;;;;;;6.43;1.60;;;;;;;11.26;76.79;100413.88;5004043;28;20050;-87
2023/04/18 05:23:57;;;;;;;3.72;1.35;;;;;;;11.10;78.35;100419.75;5007193;28;20483;-87
2023/04/18 05:26:25;;;;;;;6.65;1.70;;;;;;;11.06;79.36;100415.00;5000789;28;20041;-87
2023/04/18 05:28:53;;;;;;;3.85;1.65;;;;;;;11.10;80.87;100413.72;4998921;28;20078;-87
2023/04/18 05:31:19;;;;;;;7.90;1.67;;;;;;;11.16;79.73;100423.56;5001903;28;20083;-87
2023/04/18 05:33:44;;;;;;;4.47;2.00;;;;;;;11.27;80.53;100420.72;5004372;28;20066;-87
2023/04/18 05:36:10;;;;;;;2.30;1.83;;;;;;;11.40;82.42;100421.16;5009476;28;20038;-87
2023/04/18 05:38:36;;;;;;;9.40;1.92;;;;;;;11.46;79.96;100419.72;5000887;28;20041;-87
2023/04/18 05:41:02;;;;;;;13.48;2.30;;;;;;;11.63;79.96;100413.66;5013370;28;20479;-87
2023/04/18 05:43:28;;;;;;;8.95;1.95;;;;;;;11.74;80.24;100416.03;4997811;28;20061;-86
2023/04/18 05:45:54;;;;;;;11.70;2.50;;;;;;;11.86;80.16;100414.00;5000192;28;20054;-87
2023/04/18 05:48:21;;;;;;;11.75;2.30;;;;;;;12.04;79.00;100417.38;5002236;28;20125;-84
2023/04/18 05:50:46;;;;;;;16.50;1.83;;;;;;;12.16;77.72;100410.09;4997766;28;20054;-88
2023/04/18 05:53:12;;;;;;;14.70;2.58;;;;;;;12.33;77.02;100410.97;5005460;28;20479;-87
2023/04/18 05:55:42;;;;;;;11.88;4.80;;;;;;;12.58;71.07;100423.97;4997262;28;20120;-88
2023/04/18 05:58:07;;;;;;;8.80;2.38;;;;;;;12.62;71.02;100421.88;4999602;28;20058;-87
2023/04/18 06:00:34;;;;;;;3.03;1.65;;;;;;;12.64;70.92;100422.53;5007023;28;20547;-88
2023/04/18 06:03:06;;;;;;;9.65;1.55;;;;;;;12.69;71.68;100427.28;5002219;28;20136;-87
2023/04/18 06:05:32;;;;;;;6.85;1.67;;;;;;;12.71;71.97;100413.06;5002242;28;20128;-88
2023/04/18 06:07:57;;;;;;;5.32;1.70;;;;;;;12.74;72.91;100425.00;4994598;28;20062;-87
2023/04/18 06:10:23;;;;;;;5.15;1.20;;;;;;;12.74;71.87;100425.84;4997087;28;20042;-88
2023/04/18 06:12:49;;;;;;;5.72;1.75;;;;;;;12.81;70.80;100426.00;4999689;28;20503;-88
2023/04/18 06:15:15;;;;;;;3.67;1.25;;;;;;;12.90;69.84;100428.47;5007106;28;20123;-88
2023/04/18 06:17:43;;;;;;;5.88;2.85;;;;;;;13.02;70.02;100431.59;5000225;28;20037;-88
2023/04/18 06:20:09;;;;;;;4.22;2.42;;;;;;;13.10;70.58;100431.63;5003912;28;20034;-88
2023/04/18 06:22:35;;;;;;;4.88;3.00;;;;;;;13.12;69.80;100441.91;5001734;28;20384;-89
2023/04/18 06:25:01;;;;;;;15.65;2.53;;;;;;;13.19;69.63;100438.53;5001286;28;20035;-87
2023/04/18 06:27:26;;;;;;;9.63;2.22;;;;;;;13.29;71.08;100433.13;4992941;28;20511;-88
2023/04/18 06:29:52;;;;;;;4.78;1.45;;;;;;;13.35;70.88;100432.47;4998480;28;20801;-87
2023/04/18 06:32:18;;;;;;;5.32;1.98;;;;;;;13.50;71.77;100438.69;5007126;28;20127;-87
2023/04/18 06:34:44;;;;;;;8.82;1.17;;;;;;;13.54;69.99;100434.78;5011622;28;20038;-88
2023/04/18 06:37:10;;;;;;;4.60;0.98;;;;;;;13.60;69.21;100431.50;5010713;28;20182;-88
2023/04/18 06:39:35;;;;;;;7.13;2.10;;;;;;;13.70;70.65;100435.75;5004936;28;20034;-88
2023/04/18 06:42:01;;;;;;;5.78;1.70;;;;;;;13.81;71.32;100443.25;5001499;28;20045;-89
2023/04/18 06:44:27;;;;;;;5.95;1.67;;;;;;;13.92;70.67;100448.97;5018999;28;20496;-89
2023/04/18 06:46:52;;;;;;;16.80;2.13;;;;;;;13.96;68.77;100446.81;5018076;28;20034;-89
2023/04/18 06:49:18;;;;;;;6.45;2.10;;;;;;;13.98;68.96;100439.63;5005793;28;20051;-88
2023/04/18 06:51:43;;;;;;;12.80;1.92;;;;;;;14.10;69.48;100443.53;5019044;28;20033;-88
2023/04/18 06:54:09;;;;;;;9.10;1.95;;;;;;;14.11;70.33;100439.91;5011301;28;20036;-88
2023/04/18 06:56:34;;;;;;;9.82;1.83;;;;;;;14.17;69.50;100434.00;5019786;28;20128;-89
2023/04/18 06:59:00;;;;;;;6.28;2.20;;;;;;;14.24;69.56;100434.94;5015508;28;20041;-89
2023/04/18 07:01:25;;;;;;;10.82;2.97;;;;;;;14.55;68.92;100436.84;5011263;28;20069;-88
2023/04/18 07:03:51;;;;;;;7.35;1.50;;;;;;;15.10;67.54;100439.31;5010609;28;20034;-88
2023/04/18 07:06:17;;;;;;;5.90;1.80;;;;;;;15.60;63.91;100436.13;5015232;28;20480;-88
2023/04/18 07:08:42;;;;;;;15.52;2.10;;;;;;;16.04;61.04;100430.16;5014121;28;20029;-87
2023/04/18 07:11:10;;;;;;;3.38;1.30;;;;;;;16.16;60.29;100433.94;5020057;28;20030;-88
2023/04/18 07:13:35;;;;;;;7.15;1.30;;;;;;;16.45;59.79;100425.22;5018307;28;20108;-88
2023/04/18 07:16:01;;;;;;;20.90;2.28;;;;;;;16.26;59.06;100426.59;5014744;28;20112;-87
2023/04/18 07:18:27;;;;;;;2.15;1.38;;;;;;;16.16;59.52;100420.78;5016087;28;20033;-87
2023/04/18 07:20:53;;;;;;;4.75;0.70;;;;;;;16.06;60.27;100428.16;5011819;28;20037;-89
2023/04/18 07:23:19;;;;;;;5.28;0.68;;;;;;;16.04;61.74;100424.91;5004622;28;21241;-89
2023/04/18 07:25:44;;;;;;;5.47;0.60;;;;;;;15.90;62.11;100430.94;5012027;28;20064;-87
2023/04/18 07:28:10;;;;;;;4.50;0.63;;;;;;;15.85;63.03;100428.84;5000236;28;20038;-86
2023/04/18 07:30:36;;;;;;;3.25;0.60;;;;;;;15.84;63.48;100426.41;5014856;28;20021;-88
2023/04/18 07:33:01;;;;;;;3.85;0.50;;;;;;;15.79;62.26;100434.81;5027705;28;20556;-87
2023/04/18 07:35:27;;;;;;;0.90;0.20;;;;;;;16.03;59.70;100433.78;5028334;28;20045;-86
2023/04/18 07:37:53;;;;;;;1.77;0.30;;;;;;;16.37;59.20;100435.03;5035945;28;20030;-87
2023/04/18 07:40:18;;;;;;;2.53;0.30;;;;;;;16.92;57.77;100432.69;5032501;28;20041;-86
2023/04/18 07:42:44;;;;;;;0.40;0.20;;;;;;;17.28;57.22;100438.88;5023944;28;20034;-87
2023/04/18 07:45:10;;;;;;;1.52;0.20;;;;;;;17.79;54.58;100445.63;5024059;28;20525;-88
2023/04/18 07:47:35;;;;;;;0.65;0.20;;;;;;;18.24;52.90;100432.91;5022847;28;20035;-85
2023/04/18 07:50:01;;;;;;;1.58;0.30;;;;;;;18.06;52.97;100437.88;5025177;28;20041;-86
2023/04/18 07:52:27;;;;;;;1.80;0.52;;;;;;;17.71;52.99;100445.75;5022429;28;20475;-86
2023/04/18 07:54:52;;;;;;;3.25;0.30;;;;;;;17.58;53.12;100449.06;5020661;28;20033;-85
2023/04/18 07:57:18;;;;;;;4.93;0.30;;;;;;;17.50;51.03;100448.38;5021109;28;20042;-85
2023/04/18 07:59:43;;;;;;;0.90;0.28;;;;;;;18.09;50.61;100442.75;5006515;28;20383;-85
2023/04/18 08:02:08;;;;;;;1.00;0.17;;;;;;;18.57;49.82;100440.97;5021891;28;20144;-85
2023/04/18 08:04:34;;;;;;;0.57;0.20;;;;;;;18.73;49.49;100445.94;5029953;28;20045;-86
2023/04/18 08:06:59;;;;;;;1.40;0.30;;;;;;;18.48;50.57;100453.50;5021526;28;20128;-86
2023/04/18 08:09:25;;;;;;;0.70;0.30;;;;;;;18.10;50.63;100449.66;5026881;28;20041;-86
2023/04/18 08:11:50;;;;;;;0.43;0.20;;;;;;;18.04;51.03;100440.72;5006930;28;20069;-86
2023/04/18 08:14:16;;;;;;;0.50;0.30;;;;;;;18.29;50.73;100442.88;5007329;28;20093;-85
2023/04/18 08:16:41;;;;;;;0.80;0.25;;;;;;;17.99;51.94;100455.47;5015016;28;20083;-85
2023/04/18 08:19:06;;;;;;;1.60;0.40;;;;;;;17.47;52.53;100454.06;5011373;28;20031;-86
2023/04/18 08:21:32;;;;;;;1.73;0.60;;;;;;;17.12;53.01;100455.75;5005295;28;20034;-86
2023/04/18 08:23:57;;;;;;;1.77;0.70;;;;;;;16.90;53.61;100453.09;5005985;28;20396;-86
2023/04/18 08:26:24;;;;;;;4.50;0.80;;;;;;;16.85;54.67;100454.66;4998128;28;20415;-86
2023/04/18 08:28:50;;;;;;;1.88;0.85;;;;;;;16.81;54.74;100454.22;5011023;28;20041;-86
2023/04/18 08:31:16;;;;;;;3.75;0.90;;;;;;;16.82;54.91;100455.84;5010221;28;20033;-86
2023/04/18 08:33:42;;;;;;;1.63;0.63;;;;;;;16.92;54.96;100450.28;4999776;28;20373;-85
2023/04/18 08:36:08;;;;;;;5.40;0.88;;;;;;;17.12;56.35;100456.56;5001682;28;20033;-85
2023/04/18 08:38:33;;;;;;;1.88;0.65;;;;;;;17.13;56.37;100458.19;5005903;28;20487;-86
2023/04/18 08:40:59;;;;;;;1.23;0.47;;;;;;;17.16;55.58;100468.34;5007948;28;20054;-85
2023/04/18 08:43:24;;;;;;;1.48;0.60;;;;;;;17.37;56.33;100464.09;5011999;28;20037;-86
2023/04/18 08:45:51;;;;;;;4.05;0.73;;;;;;;17.53;56.49;100466.44;5013081;28;20383;-85
2023/04/18 08:48:17;;;;;;;1.50;0.50;;;;;;;17.67;56.50;100456.88;5004225;28;20030;-85
2023/04/18 08:50:44;;;;;;;1.10;0.45;;;;;;;17.77;56.77;100462.63;4996193;28;20401;-86
2023/04/18 08:53:10;;;;;;;1.65;0.50;;;;;;;17.81;56.93;100464.69;5003613;28;20045;-86
2023/04/18 08:55:36;;;;;;;2.08;0.43;;;;;;;17.88;56.72;100462.13;5002644;28;20041;-86
2023/04/18 08:58:03;;;;;;;3.60;0.30;;;;;;;17.93;56.31;100459.72;5003449;28;20030;-86
2023/04/18 09:00:29;;;;;;;1.30;0.40;;;;;;;18.08;57.19;100462.22;5016889;28;20032;-86
2023/04/18 09:02:57;;;;;;;1.00;0.60;;;;;;;18.23;57.16;100461.13;5009475;28;20029;-86
2023/04/18 09:05:25;;;;;;;0.90;0.30;;;;;;;18.35;56.97;100460.56;5011455;28;20068;-86
2023/04/18 09:07:53;;;;;;;1.45;0.30;;;;;;;18.47;55.55;100466.91;5014784;28;20483;-86
2023/04/18 09:10:31;;;;;;;8.43;0.68;;;;;;;18.44;53.50;100467.28;5010155;28;20099;-87
2023/04/18 09:12:58;;;;;;;2.03;0.40;;;;;;;18.53;54.52;100471.41;5021237;28;20030;-86
2023/04/18 09:15:28;;;;;;;1.10;0.52;;;;;;;18.65;54.53;100476.97;5016847;28;20036;-86
2023/04/18 09:17:56;;;;;;;0.80;0.40;;;;;;;18.80;54.71;100475.81;5010339;28;20444;-86
2023/04/18 09:20:42;;;;;;;0.65;0.30;;;;;;;18.76;51.05;100466.66;5017358;28;20108;-87
2023/04/18 09:23:10;;;;;;;1.65;0.40;;;;;;;18.75;53.55;100470.31;5003928;28;20475;-87
2023/04/18 09:25:45;;;;;;;1.98;0.50;;;;;;;18.81;53.82;100471.34;5017553;28;20033;-86
2023/04/18 09:28:32;;;;;;;0.60;0.40;;;;;;;19.56;51.20;100467.66;5013145;28;20041;-87
2023/04/18 09:31:10;;;;;;;3.65;0.50;;;;;;;19.71;52.74;100475.38;5011435;28;20526;-86
2023/04/18 09:33:37;;;;;;;0.98;0.40;;;;;;;19.62;53.18;100471.31;5013051;28;20041;-87
2023/04/18 09:36:20;;;;;;;0.98;0.40;;;;;;;19.69;50.83;100474.78;5013787;28;20026;-86
2023/04/18 09:38:46;;;;;;;0.98;0.35;;;;;;;19.65;52.16;100476.19;5004777;28;20029;-86
2023/04/18 09:41:14;;;;;;;1.85;0.45;;;;;;;19.65;51.08;100469.06;5015409;28;20042;-87
2023/04/18 09:43:40;;;;;;;1.77;0.38;;;;;;;19.65;51.35;100470.91;5011780;28;20021;-86
2023/04/18 09:46:06;;;;;;;1.83;0.30;;;;;;;19.75;51.45;100461.56;5022886;28;20041;-86
2023/04/18 09:48:32;;;;;;;2.20;0.68;;;;;;;19.72;50.71;100474.38;5009073;28;20033;-86
2023/04/18 09:51:04;;;;;;;1.73;0.30;;;;;;;19.83;51.03;100471.94;5005727;28;20050;-86
2023/04/18 09:53:30;;;;;;;3.15;0.43;;;;;;;19.97;50.81;100461.31;5010405;28;20060;-86
2023/04/18 09:55:56;;;;;;;2.45;0.40;;;;;;;19.93;51.48;100468.84;5010959;28;20049;-87
2023/04/18 09:58:24;;;;;;;1.27;0.30;;;;;;;19.76;52.17;100471.09;5013092;28;20034;-87
2023/04/18 10:00:52;;;;;;;2.40;0.30;;;;;;;19.71;51.92;100478.84;5013281;28;20040;-86
2023/04/18 10:03:18;;;;;;;1.40;0.30;;;;;;;19.68;52.46;100471.31;5017886;28;20119;-86
2023/04/18 10:05:44;;;;;;;1.00;0.30;;;;;;;19.48;51.65;100465.97;5018406;28;20068;-87
2023/04/18 10:08:12;;;;;;;4.50;0.30;;;;;;;19.34;51.63;100464.38;5015321;28;20041;-85
2023/04/18 10:10:39;;;;;;;1.02;0.20;;;;;;;19.33;51.69;100468.03;5020893;28;20127;-87
2023/04/18 10:13:07;;;;;;;2.38;0.40;;;;;;;19.26;50.54;100469.03;5013210;28;20041;-87
2023/04/18 10:15:33;;;;;;;2.70;0.40;;;;;;;19.33;50.41;100467.22;5014266;28;20505;-87
2023/04/18 10:18:08;;;;;;;2.33;0.30;;;;;;;19.54;49.74;100467.84;5017882;28;20034;-86
2023/04/18 10:20:34;;;;;;;2.15;0.25;;;;;;;19.58;51.20;100472.72;5011503;28;20474;-87
2023/04/18 10:23:33;;;;;;;1.20;0.25;;;;;;;19.54;46.04;100473.13;5000638;28;20034;-87
2023/04/18 10:25:59;;;;;;;2.83;0.40;;;;;;;19.69;48.32;100478.22;5008184;28;20487;-87
2023/04/18 10:28:26;;;;;;;4.13;0.20;;;;;;;19.72;48.29;100466.44;5015909;28;20042;-87
2023/04/18 10:30:55;;;;;;;1.95;0.30;;;;;;;19.83;47.91;100468.47;5014832;28;20029;-86
2023/04/18 10:33:34;;;;;;;0.65;0.20;;;;;;;20.09;48.56;100465.78;5022715;28;20503;-87
2023/04/18 10:36:23;;;;;;;3.30;0.20;;;;;;;20.17;47.46;100473.50;5021742;28;20033;-87
2023/04/18 10:38:48;;;;;;;1.00;0.40;;;;;;;19.94;47.28;100475.75;5016698;28;20101;-87
2023/04/18 10:41:26;;;;;;;1.15;0.30;;;;;;;20.10;45.03;100475.34;5018595;28;20122;-87
2023/04/18 10:44:21;;;;;;;1.10;0.60;;;;;;;20.36;44.51;100473.63;5018234;28;20121;-87
2023/04/18 10:46:49;;;;;;;0.70;0.30;;;;;;;20.42;48.01;100462.25;5029372;28;20445;-87
2023/04/18 10:49:25;;;;;;;0.50;0.20;;;;;;;20.44;48.75;100461.00;5017754;28;20120;-86
2023/04/18 10:51:51;;;;;;;;;;;;;;;20.26;44.17;100466.16;5026316;28;20025;-87
2023/04/18 10:54:47;;;;;;;2.35;0.30;;;;;;;20.28;46.48;100468.59;5013004;28;19929;-87
2023/04/18 10:57:14;;;;;;;;;;;;;;;20.07;44.44;100474.94;5015052;28;20034;-87
2023/04/18 10:59:57;;;;;;;;;;;;;;;20.02;45.66;100470.25;5006992;28;20437;-87
2023/04/18 11:02:28;;;;;;;2.30;0.30;;;;;;;20.28;50.75;100463.28;5008484;28;19968;-88
2023/04/18 11:04:56;;;;;;;0.50;0.22;;;;;;;20.30;48.88;100461.25;5012179;28;20036;-87
2023/04/18 11:07:51;;;;;;;0.68;0.30;;;;;;;20.26;43.76;100463.50;5002213;28;20034;-87
2023/04/18 11:10:23;;;;;;;0.50;0.20;;;;;;;20.16;44.91;100458.63;5004458;28;20064;-87
2023/04/18 11:12:49;;;;;;;0.60;0.20;;;;;;;20.08;47.24;100464.16;4995989;28;20033;-87
2023/04/18 11:15:20;;;;;;;5.10;0.28;;;;;;;20.03;46.81;100461.31;5005865;28;20038;-87
2023/04/18 11:17:53;;;;;;;0.75;0.40;;;;;;;19.96;47.70;100460.50;4992601;28;20026;-88
2023/04/18 11:20:18;;;;;;;1.58;0.55;;;;;;;20.15;48.00;100456.19;5009141;28;20096;-88
2023/04/18 11:22:53;;;;;;;0.70;0.40;;;;;;;20.27;47.65;100459.03;5030106;28;20034;-87
2023/04/18 11:25:22;;;;;;;0.40;0.25;;;;;;;20.27;47.52;100465.13;5026839;28;20033;-88
2023/04/18 11:27:53;;;;;;;0.90;0.40;;;;;;;20.42;47.57;100455.13;5025867;28;20037;-88